Estación de Illapel

Ultimos registro cada 15 minutos 56
Estación Fecha / Hora Temperatura Humedad Lluvia Velocidad Dirección Radiación Presion
56 Illapel 03-05-2026 13:45 25,6 27 0 1,8 246 608 1009
55 Illapel 03-05-2026 13:30 25,6 27 0 1,8 246 608 1009
54 Illapel 03-05-2026 13:15 25,9 25 0 2,2 325 37 1009
53 Illapel 03-05-2026 13:00 25,8 26 0 2,2 264 32 1009
52 Illapel 03-05-2026 12:45 25,2 26 0 1,8 294 30 1009
51 Illapel 03-05-2026 12:30 25,2 26 0 1,8 294 30 1009
50 Illapel 03-05-2026 12:15 25,1 22 0 1,8 266 30 1009
49 Illapel 03-05-2026 12:00 25,1 22 0 0,9 262 30 1009
48 Illapel 03-05-2026 11:45 23,6 26 0 0,9 356 30 1009
47 Illapel 03-05-2026 11:30 23,6 26 0 0,9 356 30 1009
46 Illapel 03-05-2026 11:15 22,7 29 0 0 15 40 1009
45 Illapel 03-05-2026 11:00 22,1 32 0 0,4 32 547 1009
44 Illapel 03-05-2026 10:45 20,2 35 0 0,4 54 290 1009
43 Illapel 03-05-2026 10:30 20,2 35 0 0,4 54 290 1009
42 Illapel 03-05-2026 10:15 19,3 36 0 0 60 461 1009
41 Illapel 03-05-2026 10:00 18,6 38 0 0,4 64 425 1009
40 Illapel 03-05-2026 09:45 15,5 47 0 0 64 348 1011,8
39 Illapel 03-05-2026 09:30 15,5 47 0 0 64 348 1011,8
38 Illapel 03-05-2026 09:15 14,7 47 0 0 73 306 1009
37 Illapel 03-05-2026 09:00 14,3 49 0 0,4 75 206 1009
36 Illapel 03-05-2026 08:45 11,8 54 0 0,4 121 116 1009
35 Illapel 03-05-2026 08:30 11,8 54 0 0,4 121 116 1009
34 Illapel 03-05-2026 08:15 10,4 55 0 0 135 97 1009
33 Illapel 03-05-2026 08:00 9,1 56 0 0,4 155 72 1009
32 Illapel 03-05-2026 07:45 7,8 57 0 0,4 186 5 1009
31 Illapel 03-05-2026 07:30 7,8 57 0 0,4 186 5 1009
30 Illapel 03-05-2026 07:15 8,2 57 0 0 116 0 1009
29 Illapel 03-05-2026 07:00 8,6 57 0 0 116 0 1009
28 Illapel 03-05-2026 06:45 8,3 58 0 0 125 0 1009
27 Illapel 03-05-2026 06:30 8,3 58 0 0 125 0 1009
26 Illapel 03-05-2026 06:15 8 58 0 0 124 0 1009
25 Illapel 03-05-2026 06:00 8,1 59 0 0 123 0 1009
24 Illapel 03-05-2026 05:45 7,9 59 0 0,4 137 0 1009
23 Illapel 03-05-2026 05:30 7,9 59 0 0,4 137 0 1009
22 Illapel 03-05-2026 05:15 8,1 57 0 0 139 0 1009
21 Illapel 03-05-2026 05:00 8,3 59 0 0 139 0 1009
20 Illapel 03-05-2026 04:45 8,1 60 0 0 139 0 1009
19 Illapel 03-05-2026 04:30 8,1 60 0 0 139 0 1009
18 Illapel 03-05-2026 04:15 8,2 59 0 0 127 0 1009
17 Illapel 03-05-2026 04:00 8,3 59 0 0 127 0 1009
16 Illapel 03-05-2026 03:45 8,5 59 0 0 119 0 1009
15 Illapel 03-05-2026 03:30 8,5 59 0 0 119 0 1009
14 Illapel 03-05-2026 03:15 8,6 59 0 0 119 0 1009
13 Illapel 03-05-2026 03:00 8,5 60 0 0 118 0 1009
12 Illapel 03-05-2026 02:45 8,5 59 0 0 145 0 1009
11 Illapel 03-05-2026 02:30 8,5 59 0 0 145 0 1009
10 Illapel 03-05-2026 02:15 8,7 59 0 0 146 0 1009
9 Illapel 03-05-2026 02:00 8,8 59 0 0 148 0 1009
8 Illapel 03-05-2026 01:45 9,1 59 0 0 157 0 1009
7 Illapel 03-05-2026 01:30 9,1 59 0 0 157 0 1009
6 Illapel 03-05-2026 01:15 9,3 59 0 0 143 0 1009
5 Illapel 03-05-2026 01:00 9,3 60 0 0 132 0 1009
4 Illapel 03-05-2026 00:45 9,7 60 0 0 251 0 1009
3 Illapel 03-05-2026 00:30 9,7 60 0 0 251 0 1009
2 Illapel 03-05-2026 00:15 9,5 61 0 0 253 0 1009
1 Illapel 03-05-2026 00:00 9,5 61 0 0 253 0 1009